sensor_id;sensor_type;location;lat;lon;timestamp;P1;durP1;ratioP1;P2;durP2;ratioP2
51913;SDS011;37940;53.002;6.930;2023-02-17T00:02:24;42.05;;;20.10;;
51913;SDS011;37940;53.002;6.930;2023-02-17T00:04:51;34.13;;;19.23;;
51913;SDS011;37940;53.002;6.930;2023-02-17T00:07:17;42.58;;;20.52;;
51913;SDS011;37940;53.002;6.930;2023-02-17T00:09:43;40.17;;;19.77;;
51913;SDS011;37940;53.002;6.930;2023-02-17T00:12:09;40.10;;;19.58;;
51913;SDS011;37940;53.002;6.930;2023-02-17T00:14:35;42.78;;;20.08;;
51913;SDS011;37940;53.002;6.930;2023-02-17T00:17:02;44.60;;;20.52;;
51913;SDS011;37940;53.002;6.930;2023-02-17T00:19:28;41.63;;;19.38;;
51913;SDS011;37940;53.002;6.930;2023-02-17T00:21:58;44.75;;;20.05;;
51913;SDS011;37940;53.002;6.930;2023-02-17T00:24:25;35.05;;;18.13;;
51913;SDS011;37940;53.002;6.930;2023-02-17T00:26:52;35.70;;;18.33;;
51913;SDS011;37940;53.002;6.930;2023-02-17T00:29:19;35.42;;;18.38;;
51913;SDS011;37940;53.002;6.930;2023-02-17T00:31:45;37.33;;;20.05;;
51913;SDS011;37940;53.002;6.930;2023-02-17T00:34:10;41.75;;;20.88;;
51913;SDS011;37940;53.002;6.930;2023-02-17T00:36:37;36.58;;;19.50;;
51913;SDS011;37940;53.002;6.930;2023-02-17T00:39:03;45.38;;;20.67;;
51913;SDS011;37940;53.002;6.930;2023-02-17T00:41:30;40.03;;;20.67;;
51913;SDS011;37940;53.002;6.930;2023-02-17T00:43:56;44.83;;;20.10;;
51913;SDS011;37940;53.002;6.930;2023-02-17T00:46:23;47.83;;;19.92;;
51913;SDS011;37940;53.002;6.930;2023-02-17T00:48:49;49.20;;;20.75;;
51913;SDS011;37940;53.002;6.930;2023-02-17T00:51:15;45.53;;;19.98;;
51913;SDS011;37940;53.002;6.930;2023-02-17T00:53:41;37.17;;;18.73;;
51913;SDS011;37940;53.002;6.930;2023-02-17T00:56:07;45.45;;;20.70;;
51913;SDS011;37940;53.002;6.930;2023-02-17T00:58:34;43.55;;;20.20;;
51913;SDS011;37940;53.002;6.930;2023-02-17T01:01:00;42.35;;;20.17;;
51913;SDS011;37940;53.002;6.930;2023-02-17T01:03:26;55.45;;;21.60;;
51913;SDS011;37940;53.002;6.930;2023-02-17T01:05:52;44.88;;;22.17;;
51913;SDS011;37940;53.002;6.930;2023-02-17T01:08:20;51.42;;;22.25;;
51913;SDS011;37940;53.002;6.930;2023-02-17T01:10:47;57.85;;;23.38;;
51913;SDS011;37940;53.002;6.930;2023-02-17T01:13:14;55.40;;;23.83;;
51913;SDS011;37940;53.002;6.930;2023-02-17T01:15:51;59.08;;;26.00;;
51913;SDS011;37940;53.002;6.930;2023-02-17T01:18:19;55.28;;;25.25;;
51913;SDS011;37940;53.002;6.930;2023-02-17T01:20:46;66.40;;;26.88;;
51913;SDS011;37940;53.002;6.930;2023-02-17T01:23:12;76.47;;;29.25;;
51913;SDS011;37940;53.002;6.930;2023-02-17T01:25:39;63.03;;;27.52;;
51913;SDS011;37940;53.002;6.930;2023-02-17T01:28:07;62.45;;;28.90;;
51913;SDS011;37940;53.002;6.930;2023-02-17T01:30:38;75.22;;;30.63;;
51913;SDS011;37940;53.002;6.930;2023-02-17T01:33:03;64.10;;;29.48;;
51913;SDS011;37940;53.002;6.930;2023-02-17T01:35:29;69.18;;;29.75;;
51913;SDS011;37940;53.002;6.930;2023-02-17T01:37:57;70.45;;;29.30;;
51913;SDS011;37940;53.002;6.930;2023-02-17T01:40:23;80.55;;;31.67;;
51913;SDS011;37940;53.002;6.930;2023-02-17T01:42:48;69.95;;;30.52;;
51913;SDS011;37940;53.002;6.930;2023-02-17T01:50:25;83.25;;;32.75;;
51913;SDS011;37940;53.002;6.930;2023-02-17T01:52:58;74.88;;;33.42;;
51913;SDS011;37940;53.002;6.930;2023-02-17T01:55:27;76.28;;;33.15;;
51913;SDS011;37940;53.002;6.930;2023-02-17T01:57:54;86.35;;;35.03;;
51913;SDS011;37940;53.002;6.930;2023-02-17T02:00:24;97.47;;;38.38;;
51913;SDS011;37940;53.002;6.930;2023-02-17T02:02:51;82.38;;;36.72;;
51913;SDS011;37940;53.002;6.930;2023-02-17T02:05:17;80.78;;;38.10;;
51913;SDS011;37940;53.002;6.930;2023-02-17T02:07:44;80.45;;;36.13;;
51913;SDS011;37940;53.002;6.930;2023-02-17T02:10:13;78.00;;;37.28;;
51913;SDS011;37940;53.002;6.930;2023-02-17T02:12:40;81.10;;;36.50;;
51913;SDS011;37940;53.002;6.930;2023-02-17T02:15:12;80.82;;;38.55;;
51913;SDS011;37940;53.002;6.930;2023-02-17T02:17:43;79.25;;;37.90;;
51913;SDS011;37940;53.002;6.930;2023-02-17T02:31:52;83.20;;;39.00;;
51913;SDS011;37940;53.002;6.930;2023-02-17T02:34:40;71.32;;;35.33;;
51913;SDS011;37940;53.002;6.930;2023-02-17T02:39:43;69.60;;;36.10;;
51913;SDS011;37940;53.002;6.930;2023-02-17T02:42:13;78.97;;;37.45;;
51913;SDS011;37940;53.002;6.930;2023-02-17T02:44:43;68.13;;;36.25;;
51913;SDS011;37940;53.002;6.930;2023-02-17T02:47:55;67.68;;;36.70;;
51913;SDS011;37940;53.002;6.930;2023-02-17T02:50:04;72.63;;;36.60;;
51913;SDS011;37940;53.002;6.930;2023-02-17T02:52:34;69.20;;;36.50;;
51913;SDS011;37940;53.002;6.930;2023-02-17T02:58:19;65.05;;;35.22;;
51913;SDS011;37940;53.002;6.930;2023-02-17T03:06:18;73.65;;;35.90;;
51913;SDS011;37940;53.002;6.930;2023-02-17T03:09:31;81.05;;;38.25;;
51913;SDS011;37940;53.002;6.930;2023-02-17T03:11:36;73.20;;;37.38;;
51913;SDS011;37940;53.002;6.930;2023-02-17T03:14:07;66.13;;;35.47;;
51913;SDS011;37940;53.002;6.930;2023-02-17T03:16:35;66.45;;;35.47;;
51913;SDS011;37940;53.002;6.930;2023-02-17T03:19:02;78.47;;;39.30;;
51913;SDS011;37940;53.002;6.930;2023-02-17T03:21:42;63.38;;;36.55;;
51913;SDS011;37940;53.002;6.930;2023-02-17T03:24:22;73.25;;;36.67;;
51913;SDS011;37940;53.002;6.930;2023-02-17T03:26:48;75.28;;;38.53;;
51913;SDS011;37940;53.002;6.930;2023-02-17T03:29:14;68.95;;;37.70;;
51913;SDS011;37940;53.002;6.930;2023-02-17T03:31:40;74.10;;;39.00;;
51913;SDS011;37940;53.002;6.930;2023-02-17T03:34:06;77.25;;;39.80;;
51913;SDS011;37940;53.002;6.930;2023-02-17T03:36:32;65.43;;;35.58;;
51913;SDS011;37940;53.002;6.930;2023-02-17T03:38:57;64.72;;;35.38;;
51913;SDS011;37940;53.002;6.930;2023-02-17T03:41:23;80.78;;;39.53;;
51913;SDS011;37940;53.002;6.930;2023-02-17T03:43:50;69.43;;;37.15;;
51913;SDS011;37940;53.002;6.930;2023-02-17T03:46:16;73.50;;;38.05;;
51913;SDS011;37940;53.002;6.930;2023-02-17T03:48:42;77.07;;;39.10;;
51913;SDS011;37940;53.002;6.930;2023-02-17T03:51:12;74.22;;;38.20;;
51913;SDS011;37940;53.002;6.930;2023-02-17T03:53:40;72.10;;;37.42;;
51913;SDS011;37940;53.002;6.930;2023-02-17T03:56:06;73.18;;;36.83;;
51913;SDS011;37940;53.002;6.930;2023-02-17T03:58:33;72.30;;;37.65;;
51913;SDS011;37940;53.002;6.930;2023-02-17T04:00:59;73.20;;;37.05;;
51913;SDS011;37940;53.002;6.930;2023-02-17T04:03:25;67.28;;;36.33;;
51913;SDS011;37940;53.002;6.930;2023-02-17T04:05:50;69.63;;;36.40;;
51913;SDS011;37940;53.002;6.930;2023-02-17T04:08:18;72.35;;;35.83;;
51913;SDS011;37940;53.002;6.930;2023-02-17T04:10:45;56.45;;;33.90;;
51913;SDS011;37940;53.002;6.930;2023-02-17T04:13:10;62.08;;;34.80;;
51913;SDS011;37940;53.002;6.930;2023-02-17T04:15:36;63.55;;;35.92;;
51913;SDS011;37940;53.002;6.930;2023-02-17T04:18:02;62.20;;;35.55;;
51913;SDS011;37940;53.002;6.930;2023-02-17T04:20:28;69.03;;;35.88;;
51913;SDS011;37940;53.002;6.930;2023-02-17T04:22:54;57.20;;;33.45;;
51913;SDS011;37940;53.002;6.930;2023-02-17T04:25:19;63.35;;;34.72;;
51913;SDS011;37940;53.002;6.930;2023-02-17T04:27:45;55.25;;;32.95;;
51913;SDS011;37940;53.002;6.930;2023-02-17T04:30:11;63.13;;;34.15;;
51913;SDS011;37940;53.002;6.930;2023-02-17T04:32:37;59.58;;;33.08;;
51913;SDS011;37940;53.002;6.930;2023-02-17T04:35:03;53.50;;;31.27;;
51913;SDS011;37940;53.002;6.930;2023-02-17T04:37:29;55.45;;;32.75;;
51913;SDS011;37940;53.002;6.930;2023-02-17T04:39:55;56.28;;;31.27;;
51913;SDS011;37940;53.002;6.930;2023-02-17T04:42:21;53.70;;;30.60;;
51913;SDS011;37940;53.002;6.930;2023-02-17T04:44:46;48.95;;;29.58;;
51913;SDS011;37940;53.002;6.930;2023-02-17T04:47:12;45.05;;;28.30;;
51913;SDS011;37940;53.002;6.930;2023-02-17T04:49:38;45.90;;;27.30;;
51913;SDS011;37940;53.002;6.930;2023-02-17T04:52:04;49.13;;;27.58;;
51913;SDS011;37940;53.002;6.930;2023-02-17T04:54:31;45.58;;;26.52;;
51913;SDS011;37940;53.002;6.930;2023-02-17T04:56:57;48.33;;;27.30;;
51913;SDS011;37940;53.002;6.930;2023-02-17T04:59:22;43.60;;;26.33;;
51913;SDS011;37940;53.002;6.930;2023-02-17T05:01:48;44.42;;;25.48;;
51913;SDS011;37940;53.002;6.930;2023-02-17T05:04:14;42.47;;;25.13;;
51913;SDS011;37940;53.002;6.930;2023-02-17T05:06:40;43.80;;;25.52;;
51913;SDS011;37940;53.002;6.930;2023-02-17T05:09:05;44.15;;;25.50;;
51913;SDS011;37940;53.002;6.930;2023-02-17T05:11:31;46.55;;;25.88;;
51913;SDS011;37940;53.002;6.930;2023-02-17T05:13:57;43.28;;;25.02;;
51913;SDS011;37940;53.002;6.930;2023-02-17T05:16:23;47.08;;;25.73;;
51913;SDS011;37940;53.002;6.930;2023-02-17T05:18:48;50.28;;;25.30;;
51913;SDS011;37940;53.002;6.930;2023-02-17T05:21:14;46.55;;;23.67;;
51913;SDS011;37940;53.002;6.930;2023-02-17T05:23:40;42.60;;;23.55;;
51913;SDS011;37940;53.002;6.930;2023-02-17T05:26:09;52.05;;;26.02;;
51913;SDS011;37940;53.002;6.930;2023-02-17T05:28:35;53.88;;;26.85;;
51913;SDS011;37940;53.002;6.930;2023-02-17T05:31:02;52.72;;;26.60;;
51913;SDS011;37940;53.002;6.930;2023-02-17T05:33:28;44.83;;;25.15;;
51913;SDS011;37940;53.002;6.930;2023-02-17T05:35:54;53.63;;;26.65;;
51913;SDS011;37940;53.002;6.930;2023-02-17T05:38:20;55.20;;;26.42;;
51913;SDS011;37940;53.002;6.930;2023-02-17T05:40:46;52.85;;;26.40;;
51913;SDS011;37940;53.002;6.930;2023-02-17T05:43:14;49.55;;;25.88;;
51913;SDS011;37940;53.002;6.930;2023-02-17T05:45:39;60.83;;;27.40;;
51913;SDS011;37940;53.002;6.930;2023-02-17T05:48:05;58.72;;;28.40;;
51913;SDS011;37940;53.002;6.930;2023-02-17T05:50:31;65.82;;;28.80;;
51913;SDS011;37940;53.002;6.930;2023-02-17T05:52:57;68.60;;;29.67;;
51913;SDS011;37940;53.002;6.930;2023-02-17T05:55:22;57.72;;;27.45;;
51913;SDS011;37940;53.002;6.930;2023-02-17T05:57:48;65.30;;;27.83;;
51913;SDS011;37940;53.002;6.930;2023-02-17T06:00:14;67.60;;;29.55;;
51913;SDS011;37940;53.002;6.930;2023-02-17T06:02:40;67.97;;;28.90;;
51913;SDS011;37940;53.002;6.930;2023-02-17T06:05:07;65.85;;;29.33;;
51913;SDS011;37940;53.002;6.930;2023-02-17T06:07:33;70.63;;;29.30;;
51913;SDS011;37940;53.002;6.930;2023-02-17T06:09:59;66.15;;;28.25;;
51913;SDS011;37940;53.002;6.930;2023-02-17T06:12:25;59.72;;;28.10;;
51913;SDS011;37940;53.002;6.930;2023-02-17T06:14:50;69.95;;;28.20;;
51913;SDS011;37940;53.002;6.930;2023-02-17T06:17:16;51.22;;;26.45;;
51913;SDS011;37940;53.002;6.930;2023-02-17T06:19:42;50.28;;;25.05;;
51913;SDS011;37940;53.002;6.930;2023-02-17T06:22:08;57.08;;;26.45;;
51913;SDS011;37940;53.002;6.930;2023-02-17T06:24:33;65.95;;;28.10;;
51913;SDS011;37940;53.002;6.930;2023-02-17T06:26:59;65.05;;;29.52;;
51913;SDS011;37940;53.002;6.930;2023-02-17T06:29:25;70.00;;;31.85;;
51913;SDS011;37940;53.002;6.930;2023-02-17T06:31:54;73.13;;;31.85;;
51913;SDS011;37940;53.002;6.930;2023-02-17T06:34:20;82.05;;;34.40;;
51913;SDS011;37940;53.002;6.930;2023-02-17T06:36:46;76.97;;;32.90;;
51913;SDS011;37940;53.002;6.930;2023-02-17T06:39:12;87.47;;;33.88;;
51913;SDS011;37940;53.002;6.930;2023-02-17T06:41:38;82.10;;;33.30;;
51913;SDS011;37940;53.002;6.930;2023-02-17T06:44:03;91.07;;;35.33;;
51913;SDS011;37940;53.002;6.930;2023-02-17T06:46:29;83.38;;;34.33;;
51913;SDS011;37940;53.002;6.930;2023-02-17T06:48:55;96.38;;;37.53;;
51913;SDS011;37940;53.002;6.930;2023-02-17T06:51:21;105.50;;;38.63;;
51913;SDS011;37940;53.002;6.930;2023-02-17T06:53:47;94.75;;;36.72;;
51913;SDS011;37940;53.002;6.930;2023-02-17T06:56:12;95.35;;;37.58;;
51913;SDS011;37940;53.002;6.930;2023-02-17T06:58:38;94.20;;;37.30;;
51913;SDS011;37940;53.002;6.930;2023-02-17T07:01:04;85.55;;;35.03;;
51913;SDS011;37940;53.002;6.930;2023-02-17T07:03:32;100.03;;;36.85;;
51913;SDS011;37940;53.002;6.930;2023-02-17T07:05:58;100.00;;;37.80;;
51913;SDS011;37940;53.002;6.930;2023-02-17T07:08:24;91.78;;;35.88;;
51913;SDS011;37940;53.002;6.930;2023-02-17T07:10:49;90.35;;;35.15;;
51913;SDS011;37940;53.002;6.930;2023-02-17T07:13:16;78.20;;;32.58;;
51913;SDS011;37940;53.002;6.930;2023-02-17T07:15:41;76.53;;;33.85;;
51913;SDS011;37940;53.002;6.930;2023-02-17T07:18:07;89.30;;;36.40;;
51913;SDS011;37940;53.002;6.930;2023-02-17T07:20:33;86.53;;;34.72;;
51913;SDS011;37940;53.002;6.930;2023-02-17T07:22:59;92.47;;;34.60;;
51913;SDS011;37940;53.002;6.930;2023-02-17T07:25:25;99.20;;;38.05;;
51913;SDS011;37940;53.002;6.930;2023-02-17T07:27:50;89.65;;;33.33;;
51913;SDS011;37940;53.002;6.930;2023-02-17T07:30:16;103.10;;;37.17;;
51913;SDS011;37940;53.002;6.930;2023-02-17T07:32:42;95.82;;;35.67;;
51913;SDS011;37940;53.002;6.930;2023-02-17T07:35:08;77.13;;;33.22;;
51913;SDS011;37940;53.002;6.930;2023-02-17T07:37:34;91.32;;;35.53;;
51913;SDS011;37940;53.002;6.930;2023-02-17T07:40:00;91.68;;;34.00;;
51913;SDS011;37940;53.002;6.930;2023-02-17T07:42:26;96.32;;;34.13;;
51913;SDS011;37940;53.002;6.930;2023-02-17T07:44:52;84.80;;;32.95;;
51913;SDS011;37940;53.002;6.930;2023-02-17T07:47:18;89.05;;;33.03;;
51913;SDS011;37940;53.002;6.930;2023-02-17T07:49:44;84.10;;;33.35;;
51913;SDS011;37940;53.002;6.930;2023-02-17T07:52:09;83.10;;;34.05;;
51913;SDS011;37940;53.002;6.930;2023-02-17T07:54:35;82.43;;;33.03;;
51913;SDS011;37940;53.002;6.930;2023-02-17T07:57:01;78.93;;;32.53;;
51913;SDS011;37940;53.002;6.930;2023-02-17T07:59:27;84.65;;;32.80;;
51913;SDS011;37940;53.002;6.930;2023-02-17T08:01:53;81.15;;;33.47;;
51913;SDS011;37940;53.002;6.930;2023-02-17T08:04:19;81.85;;;32.97;;
51913;SDS011;37940;53.002;6.930;2023-02-17T08:06:44;79.60;;;33.63;;
51913;SDS011;37940;53.002;6.930;2023-02-17T08:09:10;73.70;;;32.47;;
51913;SDS011;37940;53.002;6.930;2023-02-17T08:11:55;77.97;;;32.45;;
51913;SDS011;37940;53.002;6.930;2023-02-17T08:14:40;70.55;;;31.88;;
51913;SDS011;37940;53.002;6.930;2023-02-17T08:17:05;67.35;;;29.73;;
51913;SDS011;37940;53.002;6.930;2023-02-17T08:19:31;71.35;;;32.03;;
51913;SDS011;37940;53.002;6.930;2023-02-17T08:21:57;65.22;;;29.35;;
51913;SDS011;37940;53.002;6.930;2023-02-17T08:24:24;64.45;;;29.17;;
51913;SDS011;37940;53.002;6.930;2023-02-17T08:26:51;68.20;;;31.48;;
51913;SDS011;37940;53.002;6.930;2023-02-17T08:29:17;63.80;;;28.42;;
51913;SDS011;37940;53.002;6.930;2023-02-17T08:31:44;60.80;;;28.90;;
51913;SDS011;37940;53.002;6.930;2023-02-17T08:34:12;56.15;;;26.63;;
51913;SDS011;37940;53.002;6.930;2023-02-17T08:36:38;56.58;;;27.88;;
51913;SDS011;37940;53.002;6.930;2023-02-17T08:39:05;58.22;;;28.50;;
51913;SDS011;37940;53.002;6.930;2023-02-17T08:41:36;55.03;;;24.67;;
51913;SDS011;37940;53.002;6.930;2023-02-17T08:44:06;46.45;;;24.20;;
51913;SDS011;37940;53.002;6.930;2023-02-17T08:46:34;51.00;;;25.20;;
51913;SDS011;37940;53.002;6.930;2023-02-17T08:49:01;55.17;;;26.70;;
51913;SDS011;37940;53.002;6.930;2023-02-17T08:51:28;48.83;;;24.58;;
51913;SDS011;37940;53.002;6.930;2023-02-17T08:53:54;44.33;;;24.05;;
51913;SDS011;37940;53.002;6.930;2023-02-17T08:56:22;46.15;;;23.42;;
51913;SDS011;37940;53.002;6.930;2023-02-17T08:58:49;44.35;;;22.77;;
51913;SDS011;37940;53.002;6.930;2023-02-17T09:01:15;43.70;;;22.20;;
51913;SDS011;37940;53.002;6.930;2023-02-17T09:03:44;35.50;;;20.92;;
51913;SDS011;37940;53.002;6.930;2023-02-17T09:06:12;36.08;;;20.88;;
51913;SDS011;37940;53.002;6.930;2023-02-17T09:08:38;39.45;;;21.27;;
51913;SDS011;37940;53.002;6.930;2023-02-17T09:11:05;36.13;;;21.25;;
51913;SDS011;37940;53.002;6.930;2023-02-17T09:13:31;34.53;;;21.13;;
51913;SDS011;37940;53.002;6.930;2023-02-17T09:15:58;34.33;;;19.80;;
51913;SDS011;37940;53.002;6.930;2023-02-17T09:18:24;36.78;;;18.48;;
51913;SDS011;37940;53.002;6.930;2023-02-17T09:20:49;35.97;;;19.13;;
51913;SDS011;37940;53.002;6.930;2023-02-17T09:23:15;35.05;;;19.83;;
51913;SDS011;37940;53.002;6.930;2023-02-17T09:25:42;33.15;;;18.40;;
51913;SDS011;37940;53.002;6.930;2023-02-17T09:28:08;30.33;;;18.10;;
51913;SDS011;37940;53.002;6.930;2023-02-17T09:30:35;30.08;;;17.15;;
51913;SDS011;37940;53.002;6.930;2023-02-17T09:33:01;30.25;;;16.85;;
51913;SDS011;37940;53.002;6.930;2023-02-17T09:35:29;25.95;;;17.02;;
51913;SDS011;37940;53.002;6.930;2023-02-17T09:37:55;23.38;;;15.23;;
51913;SDS011;37940;53.002;6.930;2023-02-17T09:43:13;23.40;;;14.68;;
51913;SDS011;37940;53.002;6.930;2023-02-17T09:45:52;23.58;;;14.55;;
51913;SDS011;37940;53.002;6.930;2023-02-17T09:48:27;21.83;;;13.57;;
51913;SDS011;37940;53.002;6.930;2023-02-17T09:50:57;25.23;;;15.13;;
51913;SDS011;37940;53.002;6.930;2023-02-17T09:56:21;24.05;;;13.18;;
51913;SDS011;37940;53.002;6.930;2023-02-17T09:58:57;17.75;;;11.45;;
51913;SDS011;37940;53.002;6.930;2023-02-17T10:01:30;19.63;;;11.85;;
51913;SDS011;37940;53.002;6.930;2023-02-17T10:04:01;17.67;;;11.18;;
51913;SDS011;37940;53.002;6.930;2023-02-17T10:06:37;18.38;;;11.07;;
51913;SDS011;37940;53.002;6.930;2023-02-17T10:14:33;19.30;;;11.00;;
51913;SDS011;37940;53.002;6.930;2023-02-17T10:22:34;19.20;;;10.27;;
51913;SDS011;37940;53.002;6.930;2023-02-17T10:25:00;18.20;;;9.93;;
51913;SDS011;37940;53.002;6.930;2023-02-17T10:27:37;20.88;;;9.65;;
51913;SDS011;37940;53.002;6.930;2023-02-17T10:38:14;17.15;;;9.50;;
51913;SDS011;37940;53.002;6.930;2023-02-17T10:41:11;18.25;;;8.75;;
51913;SDS011;37940;53.002;6.930;2023-02-17T10:43:39;14.68;;;7.82;;
51913;SDS011;37940;53.002;6.930;2023-02-17T10:46:10;14.40;;;8.35;;
51913;SDS011;37940;53.002;6.930;2023-02-17T10:48:47;12.93;;;7.90;;
51913;SDS011;37940;53.002;6.930;2023-02-17T10:51:17;18.85;;;8.98;;
51913;SDS011;37940;53.002;6.930;2023-02-17T10:53:48;15.75;;;8.60;;
51913;SDS011;37940;53.002;6.930;2023-02-17T10:56:25;14.63;;;8.10;;
51913;SDS011;37940;53.002;6.930;2023-02-17T10:59:57;15.52;;;7.72;;
51913;SDS011;37940;53.002;6.930;2023-02-17T11:04:57;14.57;;;7.30;;
51913;SDS011;37940;53.002;6.930;2023-02-17T11:07:33;16.45;;;7.78;;
51913;SDS011;37940;53.002;6.930;2023-02-17T11:10:02;15.13;;;7.30;;
51913;SDS011;37940;53.002;6.930;2023-02-17T11:12:44;15.88;;;7.00;;
51913;SDS011;37940;53.002;6.930;2023-02-17T11:15:17;13.80;;;6.97;;
51913;SDS011;37940;53.002;6.930;2023-02-17T11:17:46;14.68;;;7.00;;
51913;SDS011;37940;53.002;6.930;2023-02-17T11:22:45;14.73;;;6.35;;
51913;SDS011;37940;53.002;6.930;2023-02-17T11:27:55;18.60;;;7.78;;
51913;SDS011;37940;53.002;6.930;2023-02-17T11:30:22;13.93;;;6.55;;
51913;SDS011;37940;53.002;6.930;2023-02-17T11:32:49;14.88;;;6.30;;
51913;SDS011;37940;53.002;6.930;2023-02-17T11:38:21;14.38;;;6.32;;
51913;SDS011;37940;53.002;6.930;2023-02-17T11:43:18;14.70;;;6.68;;
51913;SDS011;37940;53.002;6.930;2023-02-17T12:02:17;9.40;;;4.55;;
51913;SDS011;37940;53.002;6.930;2023-02-17T12:11:21;12.63;;;4.85;;
51913;SDS011;37940;53.002;6.930;2023-02-17T12:24:37;11.43;;;4.65;;
51913;SDS011;37940;53.002;6.930;2023-02-17T12:27:41;14.70;;;4.72;;
51913;SDS011;37940;53.002;6.930;2023-02-17T12:33:10;10.13;;;4.15;;
51913;SDS011;37940;53.002;6.930;2023-02-17T12:36:03;11.98;;;4.40;;
51913;SDS011;37940;53.002;6.930;2023-02-17T12:43:38;9.70;;;3.85;;
51913;SDS011;37940;53.002;6.930;2023-02-17T12:46:10;10.02;;;3.67;;
51913;SDS011;37940;53.002;6.930;2023-02-17T12:48:43;12.65;;;3.83;;
51913;SDS011;37940;53.002;6.930;2023-02-17T12:51:18;11.63;;;3.80;;
51913;SDS011;37940;53.002;6.930;2023-02-17T12:53:50;11.63;;;3.70;;
51913;SDS011;37940;53.002;6.930;2023-02-17T12:58:50;10.60;;;3.60;;
51913;SDS011;37940;53.002;6.930;2023-02-17T13:01:18;9.02;;;3.25;;
51913;SDS011;37940;53.002;6.930;2023-02-17T13:03:45;11.68;;;4.00;;
51913;SDS011;37940;53.002;6.930;2023-02-17T13:11:30;10.60;;;3.13;;
51913;SDS011;37940;53.002;6.930;2023-02-17T13:14:11;8.00;;;2.90;;
51913;SDS011;37940;53.002;6.930;2023-02-17T13:16:51;11.68;;;3.20;;
51913;SDS011;37940;53.002;6.930;2023-02-17T13:19:28;15.93;;;3.35;;
51913;SDS011;37940;53.002;6.930;2023-02-17T13:21:59;9.60;;;3.42;;
51913;SDS011;37940;53.002;6.930;2023-02-17T13:24:36;10.13;;;3.40;;
51913;SDS011;37940;53.002;6.930;2023-02-17T13:30:06;9.93;;;2.97;;
51913;SDS011;37940;53.002;6.930;2023-02-17T13:32:36;10.05;;;2.92;;
51913;SDS011;37940;53.002;6.930;2023-02-17T13:35:06;10.18;;;2.70;;
51913;SDS011;37940;53.002;6.930;2023-02-17T13:37:52;11.65;;;3.33;;
51913;SDS011;37940;53.002;6.930;2023-02-17T13:42:51;10.13;;;2.80;;
51913;SDS011;37940;53.002;6.930;2023-02-17T13:45:23;11.27;;;2.95;;
51913;SDS011;37940;53.002;6.930;2023-02-17T13:51:03;6.82;;;2.35;;
51913;SDS011;37940;53.002;6.930;2023-02-17T13:53:31;7.82;;;2.53;;
51913;SDS011;37940;53.002;6.930;2023-02-17T13:58:33;9.52;;;3.17;;
51913;SDS011;37940;53.002;6.930;2023-02-17T14:01:02;9.65;;;2.78;;
51913;SDS011;37940;53.002;6.930;2023-02-17T14:05:55;10.93;;;3.05;;
51913;SDS011;37940;53.002;6.930;2023-02-17T14:08:32;8.35;;;2.78;;
51913;SDS011;37940;53.002;6.930;2023-02-17T14:11:05;9.90;;;2.70;;
51913;SDS011;37940;53.002;6.930;2023-02-17T14:13:41;7.85;;;2.50;;
51913;SDS011;37940;53.002;6.930;2023-02-17T14:21:30;10.70;;;3.13;;
51913;SDS011;37940;53.002;6.930;2023-02-17T14:23:57;10.45;;;2.53;;
51913;SDS011;37940;53.002;6.930;2023-02-17T14:26:31;7.45;;;2.40;;
51913;SDS011;37940;53.002;6.930;2023-02-17T14:29:04;9.35;;;2.78;;
51913;SDS011;37940;53.002;6.930;2023-02-17T14:31:44;9.75;;;3.03;;
51913;SDS011;37940;53.002;6.930;2023-02-17T14:34:24;9.13;;;2.90;;
51913;SDS011;37940;53.002;6.930;2023-02-17T14:36:52;9.07;;;2.70;;
51913;SDS011;37940;53.002;6.930;2023-02-17T14:39:18;7.75;;;2.50;;
51913;SDS011;37940;53.002;6.930;2023-02-17T14:41:44;9.68;;;2.78;;
51913;SDS011;37940;53.002;6.930;2023-02-17T14:44:10;8.73;;;2.58;;
51913;SDS011;37940;53.002;6.930;2023-02-17T14:46:36;7.25;;;2.10;;
51913;SDS011;37940;53.002;6.930;2023-02-17T14:49:02;9.68;;;2.60;;
51913;SDS011;37940;53.002;6.930;2023-02-17T14:51:32;8.75;;;2.85;;
51913;SDS011;37940;53.002;6.930;2023-02-17T14:54:18;10.70;;;3.10;;
51913;SDS011;37940;53.002;6.930;2023-02-17T14:56:46;9.93;;;2.95;;
51913;SDS011;37940;53.002;6.930;2023-02-17T14:59:13;10.32;;;2.65;;
51913;SDS011;37940;53.002;6.930;2023-02-17T15:01:38;9.40;;;3.03;;
51913;SDS011;37940;53.002;6.930;2023-02-17T15:04:04;11.55;;;2.85;;
51913;SDS011;37940;53.002;6.930;2023-02-17T15:06:43;7.32;;;2.30;;
51913;SDS011;37940;53.002;6.930;2023-02-17T15:09:12;5.88;;;2.40;;
51913;SDS011;37940;53.002;6.930;2023-02-17T15:11:41;8.57;;;2.78;;
51913;SDS011;37940;53.002;6.930;2023-02-17T15:14:15;11.88;;;2.88;;
51913;SDS011;37940;53.002;6.930;2023-02-17T15:16:42;10.23;;;3.15;;
51913;SDS011;37940;53.002;6.930;2023-02-17T15:19:09;13.20;;;2.90;;
51913;SDS011;37940;53.002;6.930;2023-02-17T15:21:37;13.23;;;3.40;;
51913;SDS011;37940;53.002;6.930;2023-02-17T15:24:18;12.13;;;3.05;;
51913;SDS011;37940;53.002;6.930;2023-02-17T15:26:47;17.60;;;3.67;;
51913;SDS011;37940;53.002;6.930;2023-02-17T15:29:14;13.52;;;2.90;;
51913;SDS011;37940;53.002;6.930;2023-02-17T15:31:41;12.65;;;3.05;;
51913;SDS011;37940;53.002;6.930;2023-02-17T15:34:08;18.15;;;3.78;;
51913;SDS011;37940;53.002;6.930;2023-02-17T15:36:39;12.63;;;3.35;;
51913;SDS011;37940;53.002;6.930;2023-02-17T15:39:05;14.40;;;3.05;;
51913;SDS011;37940;53.002;6.930;2023-02-17T15:41:32;13.30;;;2.95;;
51913;SDS011;37940;53.002;6.930;2023-02-17T15:43:58;16.33;;;2.92;;
51913;SDS011;37940;53.002;6.930;2023-02-17T15:46:30;13.57;;;3.20;;
51913;SDS011;37940;53.002;6.930;2023-02-17T15:48:58;11.32;;;2.80;;
51913;SDS011;37940;53.002;6.930;2023-02-17T15:51:24;14.07;;;3.15;;
51913;SDS011;37940;53.002;6.930;2023-02-17T15:53:50;14.23;;;2.58;;
51913;SDS011;37940;53.002;6.930;2023-02-17T15:56:17;10.88;;;2.75;;
51913;SDS011;37940;53.002;6.930;2023-02-17T15:58:46;11.10;;;2.60;;
51913;SDS011;37940;53.002;6.930;2023-02-17T16:01:21;11.82;;;2.50;;
51913;SDS011;37940;53.002;6.930;2023-02-17T16:03:49;14.23;;;2.72;;
51913;SDS011;37940;53.002;6.930;2023-02-17T16:06:14;10.35;;;2.60;;
51913;SDS011;37940;53.002;6.930;2023-02-17T16:08:40;9.48;;;2.58;;
51913;SDS011;37940;53.002;6.930;2023-02-17T16:11:08;19.63;;;3.25;;
51913;SDS011;37940;53.002;6.930;2023-02-17T16:13:36;14.88;;;2.67;;
51913;SDS011;37940;53.002;6.930;2023-02-17T16:16:02;11.38;;;2.40;;
51913;SDS011;37940;53.002;6.930;2023-02-17T16:18:28;15.43;;;3.10;;
51913;SDS011;37940;53.002;6.930;2023-02-17T16:20:55;15.20;;;2.75;;
51913;SDS011;37940;53.002;6.930;2023-02-17T16:23:21;10.25;;;2.63;;
51913;SDS011;37940;53.002;6.930;2023-02-17T16:25:46;11.10;;;2.90;;
51913;SDS011;37940;53.002;6.930;2023-02-17T16:28:15;14.07;;;2.80;;
51913;SDS011;37940;53.002;6.930;2023-02-17T16:30:43;11.75;;;2.60;;
51913;SDS011;37940;53.002;6.930;2023-02-17T16:33:10;12.23;;;3.00;;
51913;SDS011;37940;53.002;6.930;2023-02-17T16:35:37;12.88;;;2.92;;
51913;SDS011;37940;53.002;6.930;2023-02-17T16:38:22;11.55;;;2.80;;
51913;SDS011;37940;53.002;6.930;2023-02-17T16:40:49;11.95;;;2.60;;
51913;SDS011;37940;53.002;6.930;2023-02-17T16:43:17;21.20;;;2.95;;
51913;SDS011;37940;53.002;6.930;2023-02-17T16:46:03;13.13;;;2.97;;
51913;SDS011;37940;53.002;6.930;2023-02-17T16:48:31;14.05;;;2.75;;
51913;SDS011;37940;53.002;6.930;2023-02-17T16:50:59;16.42;;;2.70;;